sensor_id;sensor_type;location;lat;lon;timestamp;temperature;humidity
14473;DHT22;7322;50.872;4.386;2022-07-29T00:00:21;20.20;99.90
14473;DHT22;7322;50.872;4.386;2022-07-29T00:02:48;20.30;99.90
14473;DHT22;7322;50.872;4.386;2022-07-29T00:05:15;20.30;99.90
14473;DHT22;7322;50.872;4.386;2022-07-29T00:07:42;20.30;99.90
14473;DHT22;7322;50.872;4.386;2022-07-29T00:10:10;20.40;99.90
14473;DHT22;7322;50.872;4.386;2022-07-29T00:12:40;20.30;99.90
14473;DHT22;7322;50.872;4.386;2022-07-29T00:15:08;20.30;99.90
14473;DHT22;7322;50.872;4.386;2022-07-29T00:17:35;20.20;99.90
14473;DHT22;7322;50.872;4.386;2022-07-29T00:20:03;20.20;99.90
14473;DHT22;7322;50.872;4.386;2022-07-29T00:22:30;20.10;99.90
14473;DHT22;7322;50.872;4.386;2022-07-29T00:24:58;20.20;99.90
14473;DHT22;7322;50.872;4.386;2022-07-29T00:27:25;20.20;99.90
14473;DHT22;7322;50.872;4.386;2022-07-29T00:29:53;20.20;99.90
14473;DHT22;7322;50.872;4.386;2022-07-29T00:32:20;20.10;99.90
14473;DHT22;7322;50.872;4.386;2022-07-29T00:34:46;20.10;99.90
14473;DHT22;7322;50.872;4.386;2022-07-29T00:37:31;20.10;99.90
14473;DHT22;7322;50.872;4.386;2022-07-29T00:39:58;20.00;99.90
14473;DHT22;7322;50.872;4.386;2022-07-29T00:42:25;19.90;99.90
14473;DHT22;7322;50.872;4.386;2022-07-29T00:44:53;19.90;99.90
14473;DHT22;7322;50.872;4.386;2022-07-29T00:47:20;19.80;99.90
14473;DHT22;7322;50.872;4.386;2022-07-29T00:49:47;19.80;99.90
14473;DHT22;7322;50.872;4.386;2022-07-29T00:52:14;19.80;99.90
14473;DHT22;7322;50.872;4.386;2022-07-29T00:54:41;19.70;99.90
14473;DHT22;7322;50.872;4.386;2022-07-29T00:57:08;19.70;99.90
14473;DHT22;7322;50.872;4.386;2022-07-29T00:59:41;19.60;99.90
14473;DHT22;7322;50.872;4.386;2022-07-29T01:02:10;19.60;99.90
14473;DHT22;7322;50.872;4.386;2022-07-29T01:04:36;19.60;99.90
14473;DHT22;7322;50.872;4.386;2022-07-29T01:07:13;19.60;99.90
14473;DHT22;7322;50.872;4.386;2022-07-29T01:10:00;19.50;99.90
14473;DHT22;7322;50.872;4.386;2022-07-29T01:12:37;19.60;99.90
14473;DHT22;7322;50.872;4.386;2022-07-29T01:15:07;19.60;99.90
14473;DHT22;7322;50.872;4.386;2022-07-29T01:17:43;19.50;99.90
14473;DHT22;7322;50.872;4.386;2022-07-29T01:20:14;19.40;99.90
14473;DHT22;7322;50.872;4.386;2022-07-29T01:22:53;19.40;99.90
14473;DHT22;7322;50.872;4.386;2022-07-29T01:25:40;19.50;99.90
14473;DHT22;7322;50.872;4.386;2022-07-29T01:28:37;19.40;99.90
14473;DHT22;7322;50.872;4.386;2022-07-29T01:31:06;19.40;99.90
14473;DHT22;7322;50.872;4.386;2022-07-29T01:33:40;19.40;99.90
14473;DHT22;7322;50.872;4.386;2022-07-29T01:42:12;19.40;99.90
14473;DHT22;7322;50.872;4.386;2022-07-29T01:44:50;19.30;99.90
14473;DHT22;7322;50.872;4.386;2022-07-29T01:47:20;19.30;99.90
14473;DHT22;7322;50.872;4.386;2022-07-29T01:49:51;19.20;99.90
14473;DHT22;7322;50.872;4.386;2022-07-29T01:52:21;19.20;99.90
14473;DHT22;7322;50.872;4.386;2022-07-29T01:54:55;19.20;99.90
14473;DHT22;7322;50.872;4.386;2022-07-29T01:57:29;19.10;99.90
14473;DHT22;7322;50.872;4.386;2022-07-29T01:59:58;19.00;99.90
14473;DHT22;7322;50.872;4.386;2022-07-29T02:02:28;18.90;99.90
14473;DHT22;7322;50.872;4.386;2022-07-29T02:04:56;18.90;99.90
14473;DHT22;7322;50.872;4.386;2022-07-29T02:07:25;18.90;99.90
14473;DHT22;7322;50.872;4.386;2022-07-29T02:09:55;18.90;99.90
14473;DHT22;7322;50.872;4.386;2022-07-29T02:12:24;18.90;99.90
14473;DHT22;7322;50.872;4.386;2022-07-29T02:14:53;18.80;99.90
14473;DHT22;7322;50.872;4.386;2022-07-29T02:17:26;18.80;99.90
14473;DHT22;7322;50.872;4.386;2022-07-29T02:19:57;18.80;99.90
14473;DHT22;7322;50.872;4.386;2022-07-29T02:22:28;18.60;99.90
14473;DHT22;7322;50.872;4.386;2022-07-29T02:24:56;18.60;99.90
14473;DHT22;7322;50.872;4.386;2022-07-29T02:27:25;18.60;99.90
14473;DHT22;7322;50.872;4.386;2022-07-29T02:29:54;18.60;99.90
14473;DHT22;7322;50.872;4.386;2022-07-29T02:32:24;18.70;99.90
14473;DHT22;7322;50.872;4.386;2022-07-29T02:34:53;18.60;99.90
14473;DHT22;7322;50.872;4.386;2022-07-29T02:37:21;18.60;99.90
14473;DHT22;7322;50.872;4.386;2022-07-29T02:39:50;18.50;99.90
14473;DHT22;7322;50.872;4.386;2022-07-29T02:42:19;18.50;99.90
14473;DHT22;7322;50.872;4.386;2022-07-29T02:44:47;18.50;99.90
14473;DHT22;7322;50.872;4.386;2022-07-29T02:47:18;18.50;99.90
14473;DHT22;7322;50.872;4.386;2022-07-29T02:49:52;18.40;99.90
14473;DHT22;7322;50.872;4.386;2022-07-29T02:52:24;18.40;99.90
14473;DHT22;7322;50.872;4.386;2022-07-29T02:54:56;18.30;99.90
14473;DHT22;7322;50.872;4.386;2022-07-29T02:57:32;18.30;99.90
14473;DHT22;7322;50.872;4.386;2022-07-29T03:00:02;18.30;99.90
14473;DHT22;7322;50.872;4.386;2022-07-29T03:02:33;18.20;99.90
14473;DHT22;7322;50.872;4.386;2022-07-29T03:05:03;18.30;99.90
14473;DHT22;7322;50.872;4.386;2022-07-29T03:07:30;18.30;99.90
14473;DHT22;7322;50.872;4.386;2022-07-29T03:09:58;18.20;99.90
14473;DHT22;7322;50.872;4.386;2022-07-29T03:12:25;18.20;99.90
14473;DHT22;7322;50.872;4.386;2022-07-29T03:14:54;18.20;99.90
14473;DHT22;7322;50.872;4.386;2022-07-29T03:17:22;18.10;99.90
14473;DHT22;7322;50.872;4.386;2022-07-29T03:19:50;18.00;99.90
14473;DHT22;7322;50.872;4.386;2022-07-29T03:22:19;18.00;99.90
14473;DHT22;7322;50.872;4.386;2022-07-29T03:24:46;17.90;99.90
14473;DHT22;7322;50.872;4.386;2022-07-29T03:27:13;18.00;99.90
14473;DHT22;7322;50.872;4.386;2022-07-29T03:29:40;18.00;99.90
14473;DHT22;7322;50.872;4.386;2022-07-29T03:32:07;17.90;99.90
14473;DHT22;7322;50.872;4.386;2022-07-29T03:34:35;17.90;99.90
14473;DHT22;7322;50.872;4.386;2022-07-29T03:37:03;17.90;99.90
14473;DHT22;7322;50.872;4.386;2022-07-29T03:39:35;17.90;99.90
14473;DHT22;7322;50.872;4.386;2022-07-29T03:42:04;18.00;99.90
14473;DHT22;7322;50.872;4.386;2022-07-29T03:44:33;17.90;99.90
14473;DHT22;7322;50.872;4.386;2022-07-29T03:47:02;17.80;99.90
14473;DHT22;7322;50.872;4.386;2022-07-29T03:49:31;18.00;99.90
14473;DHT22;7322;50.872;4.386;2022-07-29T03:52:00;17.90;99.90
14473;DHT22;7322;50.872;4.386;2022-07-29T03:54:27;17.90;99.90
14473;DHT22;7322;50.872;4.386;2022-07-29T03:56:58;17.80;99.90
14473;DHT22;7322;50.872;4.386;2022-07-29T03:59:26;17.90;99.90
14473;DHT22;7322;50.872;4.386;2022-07-29T04:01:55;17.80;99.90
14473;DHT22;7322;50.872;4.386;2022-07-29T04:04:24;17.70;99.90
14473;DHT22;7322;50.872;4.386;2022-07-29T04:06:51;17.80;99.90
14473;DHT22;7322;50.872;4.386;2022-07-29T04:09:18;17.70;99.90
14473;DHT22;7322;50.872;4.386;2022-07-29T04:11:46;17.60;99.90
14473;DHT22;7322;50.872;4.386;2022-07-29T04:14:14;17.60;99.90
14473;DHT22;7322;50.872;4.386;2022-07-29T04:16:41;17.50;99.90
14473;DHT22;7322;50.872;4.386;2022-07-29T04:19:08;17.50;99.90
14473;DHT22;7322;50.872;4.386;2022-07-29T04:21:37;17.50;99.90
14473;DHT22;7322;50.872;4.386;2022-07-29T04:24:04;17.40;99.90
14473;DHT22;7322;50.872;4.386;2022-07-29T04:26:31;17.40;99.90
14473;DHT22;7322;50.872;4.386;2022-07-29T04:28:59;17.50;99.90
14473;DHT22;7322;50.872;4.386;2022-07-29T04:31:27;17.50;99.90
14473;DHT22;7322;50.872;4.386;2022-07-29T04:33:55;17.50;99.90
14473;DHT22;7322;50.872;4.386;2022-07-29T04:36:22;17.50;99.90
14473;DHT22;7322;50.872;4.386;2022-07-29T04:38:49;17.50;99.90
14473;DHT22;7322;50.872;4.386;2022-07-29T04:41:16;17.50;99.90
14473;DHT22;7322;50.872;4.386;2022-07-29T04:43:43;17.50;99.90
14473;DHT22;7322;50.872;4.386;2022-07-29T04:46:10;17.50;99.90
14473;DHT22;7322;50.872;4.386;2022-07-29T04:48:38;17.50;99.90
14473;DHT22;7322;50.872;4.386;2022-07-29T04:51:08;17.50;99.90
14473;DHT22;7322;50.872;4.386;2022-07-29T04:53:35;17.60;99.90
14473;DHT22;7322;50.872;4.386;2022-07-29T04:56:02;17.60;99.90
14473;DHT22;7322;50.872;4.386;2022-07-29T04:58:29;17.70;99.90
14473;DHT22;7322;50.872;4.386;2022-07-29T05:00:57;17.80;99.90
14473;DHT22;7322;50.872;4.386;2022-07-29T05:03:24;17.80;99.90
14473;DHT22;7322;50.872;4.386;2022-07-29T05:05:54;17.70;99.90
14473;DHT22;7322;50.872;4.386;2022-07-29T05:08:44;17.70;99.90
14473;DHT22;7322;50.872;4.386;2022-07-29T05:11:19;17.80;99.90
14473;DHT22;7322;50.872;4.386;2022-07-29T05:13:46;17.80;99.90
14473;DHT22;7322;50.872;4.386;2022-07-29T05:16:13;17.90;99.90
14473;DHT22;7322;50.872;4.386;2022-07-29T05:18:41;18.00;99.90
14473;DHT22;7322;50.872;4.386;2022-07-29T05:24:40;18.30;99.90
14473;DHT22;7322;50.872;4.386;2022-07-29T05:27:11;18.60;99.90
14473;DHT22;7322;50.872;4.386;2022-07-29T05:29:38;18.60;99.90
14473;DHT22;7322;50.872;4.386;2022-07-29T05:32:06;18.60;99.90
14473;DHT22;7322;50.872;4.386;2022-07-29T05:34:33;18.70;99.90
14473;DHT22;7322;50.872;4.386;2022-07-29T05:37:00;18.90;99.90
14473;DHT22;7322;50.872;4.386;2022-07-29T05:39:27;18.90;99.90
14473;DHT22;7322;50.872;4.386;2022-07-29T05:41:56;18.90;99.90
14473;DHT22;7322;50.872;4.386;2022-07-29T05:44:23;19.30;99.90
14473;DHT22;7322;50.872;4.386;2022-07-29T05:46:50;19.50;99.90
14473;DHT22;7322;50.872;4.386;2022-07-29T05:49:17;19.60;99.90
14473;DHT22;7322;50.872;4.386;2022-07-29T05:51:43;19.60;99.90
14473;DHT22;7322;50.872;4.386;2022-07-29T05:54:10;19.50;99.90
14473;DHT22;7322;50.872;4.386;2022-07-29T05:56:37;19.50;99.90
14473;DHT22;7322;50.872;4.386;2022-07-29T05:59:06;19.40;99.90
14473;DHT22;7322;50.872;4.386;2022-07-29T06:01:33;19.40;99.90
14473;DHT22;7322;50.872;4.386;2022-07-29T06:03:59;19.50;99.90
14473;DHT22;7322;50.872;4.386;2022-07-29T06:06:27;19.70;99.90
14473;DHT22;7322;50.872;4.386;2022-07-29T06:08:54;20.20;99.90
14473;DHT22;7322;50.872;4.386;2022-07-29T06:11:21;21.00;99.90
14473;DHT22;7322;50.872;4.386;2022-07-29T06:13:48;21.10;99.90
14473;DHT22;7322;50.872;4.386;2022-07-29T06:16:16;21.10;99.90
14473;DHT22;7322;50.872;4.386;2022-07-29T06:18:43;21.90;99.90
14473;DHT22;7322;50.872;4.386;2022-07-29T06:21:11;23.60;99.90
14473;DHT22;7322;50.872;4.386;2022-07-29T06:23:38;25.00;99.90
14473;DHT22;7322;50.872;4.386;2022-07-29T06:26:06;25.70;99.90
14473;DHT22;7322;50.872;4.386;2022-07-29T06:28:33;26.70;99.90
14473;DHT22;7322;50.872;4.386;2022-07-29T06:31:00;27.80;99.90
14473;DHT22;7322;50.872;4.386;2022-07-29T06:33:28;27.90;99.90
14473;DHT22;7322;50.872;4.386;2022-07-29T06:35:56;28.80;99.90
14473;DHT22;7322;50.872;4.386;2022-07-29T06:38:22;29.20;99.90
14473;DHT22;7322;50.872;4.386;2022-07-29T06:40:49;29.90;99.90
14473;DHT22;7322;50.872;4.386;2022-07-29T06:43:34;30.20;99.30
14473;DHT22;7322;50.872;4.386;2022-07-29T06:46:04;30.50;98.10
14473;DHT22;7322;50.872;4.386;2022-07-29T06:48:33;30.90;97.00
14473;DHT22;7322;50.872;4.386;2022-07-29T06:51:01;31.50;96.10
14473;DHT22;7322;50.872;4.386;2022-07-29T06:53:31;31.40;95.10
14473;DHT22;7322;50.872;4.386;2022-07-29T06:55:58;31.50;94.20
14473;DHT22;7322;50.872;4.386;2022-07-29T06:58:25;32.40;93.00
14473;DHT22;7322;50.872;4.386;2022-07-29T07:00:53;33.50;90.90
14473;DHT22;7322;50.872;4.386;2022-07-29T07:03:20;33.20;89.40
14473;DHT22;7322;50.872;4.386;2022-07-29T07:05:49;32.50;89.40
14473;DHT22;7322;50.872;4.386;2022-07-29T07:08:16;31.00;90.50
14473;DHT22;7322;50.872;4.386;2022-07-29T07:10:43;29.80;92.50
14473;DHT22;7322;50.872;4.386;2022-07-29T07:13:10;28.20;95.20
14473;DHT22;7322;50.872;4.386;2022-07-29T07:15:37;27.60;97.00
14473;DHT22;7322;50.872;4.386;2022-07-29T07:18:05;26.70;98.80
14473;DHT22;7322;50.872;4.386;2022-07-29T07:20:32;25.60;99.90
14473;DHT22;7322;50.872;4.386;2022-07-29T07:23:00;24.70;99.90
14473;DHT22;7322;50.872;4.386;2022-07-29T07:25:27;24.40;99.90
14473;DHT22;7322;50.872;4.386;2022-07-29T07:27:54;24.50;99.90
14473;DHT22;7322;50.872;4.386;2022-07-29T07:30:21;24.70;99.90
14473;DHT22;7322;50.872;4.386;2022-07-29T07:32:49;25.00;99.90
14473;DHT22;7322;50.872;4.386;2022-07-29T07:35:15;25.30;99.90
14473;DHT22;7322;50.872;4.386;2022-07-29T07:37:42;26.30;99.90
14473;DHT22;7322;50.872;4.386;2022-07-29T07:40:12;27.20;99.90
14473;DHT22;7322;50.872;4.386;2022-07-29T07:42:39;27.70;99.90
14473;DHT22;7322;50.872;4.386;2022-07-29T07:45:07;28.90;99.90
14473;DHT22;7322;50.872;4.386;2022-07-29T07:47:35;29.20;99.60
14473;DHT22;7322;50.872;4.386;2022-07-29T07:50:03;30.80;98.00
14473;DHT22;7322;50.872;4.386;2022-07-29T07:52:30;31.20;96.10
14473;DHT22;7322;50.872;4.386;2022-07-29T07:54:57;31.80;95.10
14473;DHT22;7322;50.872;4.386;2022-07-29T07:57:26;30.40;95.50
14473;DHT22;7322;50.872;4.386;2022-07-29T07:59:53;29.70;96.60
14473;DHT22;7322;50.872;4.386;2022-07-29T08:02:20;29.70;96.80
14473;DHT22;7322;50.872;4.386;2022-07-29T08:04:46;29.50;97.20
14473;DHT22;7322;50.872;4.386;2022-07-29T08:07:14;30.30;97.30
14473;DHT22;7322;50.872;4.386;2022-07-29T08:09:41;30.90;95.60
14473;DHT22;7322;50.872;4.386;2022-07-29T08:12:08;30.40;95.90
14473;DHT22;7322;50.872;4.386;2022-07-29T08:14:36;30.30;96.10
14473;DHT22;7322;50.872;4.386;2022-07-29T08:17:03;32.20;94.70
14473;DHT22;7322;50.872;4.386;2022-07-29T08:19:30;33.70;92.60
14473;DHT22;7322;50.872;4.386;2022-07-29T08:21:57;32.70;92.00
14473;DHT22;7322;50.872;4.386;2022-07-29T08:24:24;31.30;93.90
14473;DHT22;7322;50.872;4.386;2022-07-29T08:27:09;32.40;93.20
14473;DHT22;7322;50.872;4.386;2022-07-29T08:29:38;33.90;91.50
14473;DHT22;7322;50.872;4.386;2022-07-29T08:32:06;33.20;90.50
14473;DHT22;7322;50.872;4.386;2022-07-29T08:34:33;31.70;91.80
14473;DHT22;7322;50.872;4.386;2022-07-29T08:37:00;30.80;92.90
14473;DHT22;7322;50.872;4.386;2022-07-29T08:39:26;30.40;93.60
14473;DHT22;7322;50.872;4.386;2022-07-29T08:41:53;30.70;93.60
14473;DHT22;7322;50.872;4.386;2022-07-29T08:44:20;31.80;93.30
14473;DHT22;7322;50.872;4.386;2022-07-29T08:46:49;33.00;91.90
14473;DHT22;7322;50.872;4.386;2022-07-29T08:49:17;33.10;90.50
14473;DHT22;7322;50.872;4.386;2022-07-29T08:51:44;32.40;91.20
14473;DHT22;7322;50.872;4.386;2022-07-29T08:54:11;34.10;89.60
14473;DHT22;7322;50.872;4.386;2022-07-29T08:56:43;35.80;84.00
14473;DHT22;7322;50.872;4.386;2022-07-29T08:59:11;34.80;82.10
14473;DHT22;7322;50.872;4.386;2022-07-29T09:01:39;34.20;83.20
14473;DHT22;7322;50.872;4.386;2022-07-29T09:04:11;34.20;83.90
14473;DHT22;7322;50.872;4.386;2022-07-29T09:06:43;35.60;80.40
14473;DHT22;7322;50.872;4.386;2022-07-29T09:09:11;36.00;77.60
14473;DHT22;7322;50.872;4.386;2022-07-29T09:11:39;35.30;79.10
14473;DHT22;7322;50.872;4.386;2022-07-29T09:14:06;35.80;75.90
14473;DHT22;7322;50.872;4.386;2022-07-29T09:16:54;34.60;77.90
14473;DHT22;7322;50.872;4.386;2022-07-29T09:19:28;34.80;76.20
14473;DHT22;7322;50.872;4.386;2022-07-29T09:21:58;32.90;78.50
14473;DHT22;7322;50.872;4.386;2022-07-29T09:24:27;31.90;80.40
14473;DHT22;7322;50.872;4.386;2022-07-29T09:26:54;32.80;80.40
14473;DHT22;7322;50.872;4.386;2022-07-29T09:29:23;33.60;78.30
14473;DHT22;7322;50.872;4.386;2022-07-29T09:31:51;33.90;78.00
14473;DHT22;7322;50.872;4.386;2022-07-29T09:34:22;34.70;76.20
14473;DHT22;7322;50.872;4.386;2022-07-29T09:36:52;34.10;76.10
14473;DHT22;7322;50.872;4.386;2022-07-29T09:39:29;34.00;77.00
14473;DHT22;7322;50.872;4.386;2022-07-29T09:42:00;34.60;77.20
14473;DHT22;7322;50.872;4.386;2022-07-29T09:44:44;35.90;72.20
14473;DHT22;7322;50.872;4.386;2022-07-29T09:47:11;34.80;71.40
14473;DHT22;7322;50.872;4.386;2022-07-29T09:49:51;33.10;75.20
14473;DHT22;7322;50.872;4.386;2022-07-29T09:52:20;33.50;74.80
14473;DHT22;7322;50.872;4.386;2022-07-29T09:54:47;33.90;74.90
14473;DHT22;7322;50.872;4.386;2022-07-29T09:57:26;33.40;76.40
14473;DHT22;7322;50.872;4.386;2022-07-29T09:59:57;33.90;75.50
14473;DHT22;7322;50.872;4.386;2022-07-29T10:02:30;33.10;74.60
14473;DHT22;7322;50.872;4.386;2022-07-29T10:04:57;32.40;76.30
14473;DHT22;7322;50.872;4.386;2022-07-29T10:07:26;33.10;77.20
14473;DHT22;7322;50.872;4.386;2022-07-29T10:09:57;33.70;74.20
14473;DHT22;7322;50.872;4.386;2022-07-29T10:12:24;34.60;72.50
14473;DHT22;7322;50.872;4.386;2022-07-29T10:14:51;35.00;70.00
14473;DHT22;7322;50.872;4.386;2022-07-29T10:17:19;34.40;69.90
14473;DHT22;7322;50.872;4.386;2022-07-29T10:19:48;34.60;69.90
14473;DHT22;7322;50.872;4.386;2022-07-29T10:22:16;33.90;68.70
14473;DHT22;7322;50.872;4.386;2022-07-29T10:24:44;33.00;70.40
14473;DHT22;7322;50.872;4.386;2022-07-29T10:27:12;33.60;70.50
14473;DHT22;7322;50.872;4.386;2022-07-29T10:29:39;34.30;68.80
14473;DHT22;7322;50.872;4.386;2022-07-29T10:32:16;34.50;67.90
14473;DHT22;7322;50.872;4.386;2022-07-29T10:35:15;34.60;65.90
14473;DHT22;7322;50.872;4.386;2022-07-29T10:38:06;34.50;64.50
14473;DHT22;7322;50.872;4.386;2022-07-29T10:40:41;34.40;64.70
14473;DHT22;7322;50.872;4.386;2022-07-29T10:43:32;33.70;67.50
14473;DHT22;7322;50.872;4.386;2022-07-29T10:46:03;34.00;66.80
14473;DHT22;7322;50.872;4.386;2022-07-29T10:48:30;34.20;65.70
14473;DHT22;7322;50.872;4.386;2022-07-29T10:51:00;33.50;65.80
14473;DHT22;7322;50.872;4.386;2022-07-29T10:53:46;33.40;66.80
14473;DHT22;7322;50.872;4.386;2022-07-29T10:56:26;34.40;66.10
14473;DHT22;7322;50.872;4.386;2022-07-29T10:59:23;33.30;65.80
14473;DHT22;7322;50.872;4.386;2022-07-29T11:01:52;32.90;67.70
14473;DHT22;7322;50.872;4.386;2022-07-29T11:07:25;33.80;64.60
14473;DHT22;7322;50.872;4.386;2022-07-29T11:10:20;34.50;62.90
14473;DHT22;7322;50.872;4.386;2022-07-29T11:12:49;34.50;61.70
14473;DHT22;7322;50.872;4.386;2022-07-29T11:15:18;34.60;63.00
14473;DHT22;7322;50.872;4.386;2022-07-29T11:18:05;34.90;60.60
14473;DHT22;7322;50.872;4.386;2022-07-29T11:20:34;34.80;63.20
14473;DHT22;7322;50.872;4.386;2022-07-29T11:23:18;34.80;62.10
14473;DHT22;7322;50.872;4.386;2022-07-29T11:25:45;35.30;60.30
14473;DHT22;7322;50.872;4.386;2022-07-29T11:28:18;34.20;58.70
14473;DHT22;7322;50.872;4.386;2022-07-29T11:30:51;34.00;60.10
14473;DHT22;7322;50.872;4.386;2022-07-29T11:33:29;34.40;61.60
14473;DHT22;7322;50.872;4.386;2022-07-29T11:36:09;33.80;60.50
14473;DHT22;7322;50.872;4.386;2022-07-29T11:38:37;32.80;60.50
14473;DHT22;7322;50.872;4.386;2022-07-29T11:41:21;32.60;61.50
14473;DHT22;7322;50.872;4.386;2022-07-29T11:43:52;32.60;63.40
14473;DHT22;7322;50.872;4.386;2022-07-29T11:46:46;32.50;65.40
14473;DHT22;7322;50.872;4.386;2022-07-29T11:49:19;32.00;65.10
14473;DHT22;7322;50.872;4.386;2022-07-29T11:51:50;32.50;64.60
14473;DHT22;7322;50.872;4.386;2022-07-29T11:54:24;33.00;63.70
14473;DHT22;7322;50.872;4.386;2022-07-29T11:56:53;33.40;62.00
14473;DHT22;7322;50.872;4.386;2022-07-29T11:59:22;34.00;62.10
14473;DHT22;7322;50.872;4.386;2022-07-29T12:01:52;34.30;61.60
14473;DHT22;7322;50.872;4.386;2022-07-29T12:04:20;33.00;63.20
14473;DHT22;7322;50.872;4.386;2022-07-29T12:06:49;32.90;60.00
14473;DHT22;7322;50.872;4.386;2022-07-29T12:09:17;31.90;61.20
14473;DHT22;7322;50.872;4.386;2022-07-29T12:11:45;31.30;61.80
14473;DHT22;7322;50.872;4.386;2022-07-29T12:14:26;30.80;65.40
14473;DHT22;7322;50.872;4.386;2022-07-29T12:16:53;31.10;65.00
14473;DHT22;7322;50.872;4.386;2022-07-29T12:19:20;30.90;64.90
14473;DHT22;7322;50.872;4.386;2022-07-29T12:21:49;31.50;64.10
14473;DHT22;7322;50.872;4.386;2022-07-29T12:24:17;31.40;64.50
14473;DHT22;7322;50.872;4.386;2022-07-29T12:26:51;32.00;64.60
14473;DHT22;7322;50.872;4.386;2022-07-29T12:29:18;32.90;63.20
14473;DHT22;7322;50.872;4.386;2022-07-29T12:31:51;33.20;60.80
14473;DHT22;7322;50.872;4.386;2022-07-29T12:34:21;33.30;60.50
14473;DHT22;7322;50.872;4.386;2022-07-29T12:36:50;33.30;59.70
14473;DHT22;7322;50.872;4.386;2022-07-29T12:39:19;32.50;60.90
14473;DHT22;7322;50.872;4.386;2022-07-29T12:41:48;33.30;60.40
14473;DHT22;7322;50.872;4.386;2022-07-29T12:44:15;33.60;59.30
14473;DHT22;7322;50.872;4.386;2022-07-29T12:46:41;32.60;59.70
14473;DHT22;7322;50.872;4.386;2022-07-29T12:49:10;32.60;59.70
14473;DHT22;7322;50.872;4.386;2022-07-29T12:51:47;32.70;60.80
14473;DHT22;7322;50.872;4.386;2022-07-29T12:54:15;32.30;60.60
14473;DHT22;7322;50.872;4.386;2022-07-29T12:56:43;31.90;60.70
14473;DHT22;7322;50.872;4.386;2022-07-29T12:59:15;31.50;62.50
14473;DHT22;7322;50.872;4.386;2022-07-29T13:01:42;31.10;63.60
14473;DHT22;7322;50.872;4.386;2022-07-29T13:04:24;30.30;65.40
14473;DHT22;7322;50.872;4.386;2022-07-29T13:06:58;30.20;66.30
14473;DHT22;7322;50.872;4.386;2022-07-29T13:09:36;30.80;66.30
14473;DHT22;7322;50.872;4.386;2022-07-29T13:12:07;31.30;64.60
14473;DHT22;7322;50.872;4.386;2022-07-29T13:14:36;31.40;63.10
14473;DHT22;7322;50.872;4.386;2022-07-29T13:17:05;30.90;64.00
14473;DHT22;7322;50.872;4.386;2022-07-29T13:19:37;30.20;65.60
14473;DHT22;7322;50.872;4.386;2022-07-29T13:22:06;29.60;66.50
14473;DHT22;7322;50.872;4.386;2022-07-29T13:24:33;29.90;66.80
14473;DHT22;7322;50.872;4.386;2022-07-29T13:27:01;29.90;66.70
14473;DHT22;7322;50.872;4.386;2022-07-29T13:29:28;29.70;66.40
14473;DHT22;7322;50.872;4.386;2022-07-29T13:31:55;29.30;67.50
14473;DHT22;7322;50.872;4.386;2022-07-29T13:34:22;29.10;67.60
14473;DHT22;7322;50.872;4.386;2022-07-29T13:36:51;29.70;67.80
14473;DHT22;7322;50.872;4.386;2022-07-29T13:39:18;30.40;66.80
14473;DHT22;7322;50.872;4.386;2022-07-29T13:41:45;30.50;66.50
14473;DHT22;7322;50.872;4.386;2022-07-29T13:44:12;30.60;66.60
14473;DHT22;7322;50.872;4.386;2022-07-29T13:46:39;30.90;66.20
14473;DHT22;7322;50.872;4.386;2022-07-29T13:49:06;30.60;66.70
14473;DHT22;7322;50.872;4.386;2022-07-29T13:51:33;30.80;67.20
14473;DHT22;7322;50.872;4.386;2022-07-29T13:54:01;31.00;66.10
14473;DHT22;7322;50.872;4.386;2022-07-29T13:56:28;31.20;65.50
14473;DHT22;7322;50.872;4.386;2022-07-29T13:58:55;31.20;63.50
14473;DHT22;7322;50.872;4.386;2022-07-29T14:01:23;30.60;65.20
14473;DHT22;7322;50.872;4.386;2022-07-29T14:03:51;31.10;64.40
14473;DHT22;7322;50.872;4.386;2022-07-29T14:06:18;31.00;63.30
14473;DHT22;7322;50.872;4.386;2022-07-29T14:08:45;31.70;63.10
14473;DHT22;7322;50.872;4.386;2022-07-29T14:11:13;31.90;62.20
14473;DHT22;7322;50.872;4.386;2022-07-29T14:13:40;31.60;62.20
14473;DHT22;7322;50.872;4.386;2022-07-29T14:16:07;31.40;62.70
14473;DHT22;7322;50.872;4.386;2022-07-29T14:18:34;31.70;63.20
14473;DHT22;7322;50.872;4.386;2022-07-29T14:21:01;31.30;62.80
14473;DHT22;7322;50.872;4.386;2022-07-29T14:23:29;30.60;65.50
14473;DHT22;7322;50.872;4.386;2022-07-29T14:25:56;29.90;66.00
14473;DHT22;7322;50.872;4.386;2022-07-29T14:28:24;29.70;66.80
14473;DHT22;7322;50.872;4.386;2022-07-29T14:30:51;29.90;67.00
14473;DHT22;7322;50.872;4.386;2022-07-29T14:33:18;29.70;66.10
14473;DHT22;7322;50.872;4.386;2022-07-29T14:35:46;29.80;66.70
14473;DHT22;7322;50.872;4.386;2022-07-29T14:38:13;29.70;66.90
14473;DHT22;7322;50.872;4.386;2022-07-29T14:40:41;29.40;67.70
14473;DHT22;7322;50.872;4.386;2022-07-29T14:43:08;28.70;68.80
14473;DHT22;7322;50.872;4.386;2022-07-29T14:45:36;28.70;69.40
14473;DHT22;7322;50.872;4.386;2022-07-29T14:48:03;28.70;70.00
14473;DHT22;7322;50.872;4.386;2022-07-29T14:50:30;28.80;70.20
14473;DHT22;7322;50.872;4.386;2022-07-29T14:52:59;28.90;70.80
14473;DHT22;7322;50.872;4.386;2022-07-29T14:55:27;28.60;71.30
14473;DHT22;7322;50.872;4.386;2022-07-29T14:57:55;28.60;71.40
14473;DHT22;7322;50.872;4.386;2022-07-29T15:00:22;28.30;72.50
14473;DHT22;7322;50.872;4.386;2022-07-29T15:02:50;28.50;72.40
14473;DHT22;7322;50.872;4.386;2022-07-29T15:05:17;28.80;71.80
14473;DHT22;7322;50.872;4.386;2022-07-29T15:07:46;28.60;71.50
14473;DHT22;7322;50.872;4.386;2022-07-29T15:10:13;28.60;71.80
14473;DHT22;7322;50.872;4.386;2022-07-29T15:12:41;28.40;72.20
14473;DHT22;7322;50.872;4.386;2022-07-29T15:15:09;28.00;73.90
14473;DHT22;7322;50.872;4.386;2022-07-29T15:17:36;27.90;73.60
14473;DHT22;7322;50.872;4.386;2022-07-29T15:20:07;27.70;73.70
14473;DHT22;7322;50.872;4.386;2022-07-29T15:22:36;28.10;74.20
14473;DHT22;7322;50.872;4.386;2022-07-29T15:25:04;28.20;72.40
14473;DHT22;7322;50.872;4.386;2022-07-29T15:27:33;28.10;73.30
14473;DHT22;7322;50.872;4.386;2022-07-29T15:30:00;28.10;73.50
14473;DHT22;7322;50.872;4.386;2022-07-29T15:32:27;28.10;73.30
14473;DHT22;7322;50.872;4.386;2022-07-29T15:34:57;28.10;73.40
14473;DHT22;7322;50.872;4.386;2022-07-29T15:37:27;28.00;73.40
14473;DHT22;7322;50.872;4.386;2022-07-29T15:39:54;28.20;73.50
14473;DHT22;7322;50.872;4.386;2022-07-29T15:42:21;28.40;73.00
14473;DHT22;7322;50.872;4.386;2022-07-29T15:44:48;28.40;71.90
14473;DHT22;7322;50.872;4.386;2022-07-29T15:47:15;28.30;72.90
14473;DHT22;7322;50.872;4.386;2022-07-29T15:49:44;28.20;72.80
14473;DHT22;7322;50.872;4.386;2022-07-29T15:52:11;28.30;72.90
14473;DHT22;7322;50.872;4.386;2022-07-29T15:54:40;28.00;72.90
14473;DHT22;7322;50.872;4.386;2022-07-29T15:57:07;28.20;73.20
14473;DHT22;7322;50.872;4.386;2022-07-29T15:59:34;28.30;73.10
14473;DHT22;7322;50.872;4.386;2022-07-29T16:02:01;28.30;72.40
14473;DHT22;7322;50.872;4.386;2022-07-29T16:04:28;28.30;73.50
14473;DHT22;7322;50.872;4.386;2022-07-29T16:06:55;28.40;73.80
14473;DHT22;7322;50.872;4.386;2022-07-29T16:09:21;28.40;73.00
14473;DHT22;7322;50.872;4.386;2022-07-29T16:11:50;28.20;72.90